sensor_id;sensor_type;location;lat;lon;timestamp;P1;durP1;ratioP1;P2;durP2;ratioP2
609;SDS011;292;48.800;9.216;2024-02-16T00:10:59;9.70;;;4.20;;
609;SDS011;292;48.800;9.216;2024-02-16T03:22:02;11.03;;;5.40;;
609;SDS011;292;48.800;9.216;2024-02-16T04:58:55;13.90;;;5.63;;
609;SDS011;292;48.800;9.216;2024-02-16T07:01:34;9.60;;;4.50;;
609;SDS011;292;48.800;9.216;2024-02-16T07:04:04;10.60;;;4.10;;
609;SDS011;292;48.800;9.216;2024-02-16T07:06:32;10.07;;;4.80;;
609;SDS011;292;48.800;9.216;2024-02-16T07:08:59;9.67;;;4.30;;
609;SDS011;292;48.800;9.216;2024-02-16T07:11:27;10.27;;;4.60;;
609;SDS011;292;48.800;9.216;2024-02-16T07:13:54;10.10;;;5.03;;
609;SDS011;292;48.800;9.216;2024-02-16T07:16:21;16.13;;;5.93;;
609;SDS011;292;48.800;9.216;2024-02-16T07:18:50;18.20;;;5.87;;
609;SDS011;292;48.800;9.216;2024-02-16T07:21:17;10.80;;;4.83;;
609;SDS011;292;48.800;9.216;2024-02-16T07:23:46;13.60;;;5.27;;
609;SDS011;292;48.800;9.216;2024-02-16T07:26:13;13.73;;;5.10;;
609;SDS011;292;48.800;9.216;2024-02-16T07:28:42;11.57;;;4.60;;
609;SDS011;292;48.800;9.216;2024-02-16T07:31:09;9.97;;;4.80;;
609;SDS011;292;48.800;9.216;2024-02-16T07:33:37;8.97;;;4.33;;
609;SDS011;292;48.800;9.216;2024-02-16T07:36:07;9.77;;;4.60;;
609;SDS011;292;48.800;9.216;2024-02-16T07:38:34;7.53;;;4.40;;
609;SDS011;292;48.800;9.216;2024-02-16T07:41:02;13.83;;;5.60;;
609;SDS011;292;48.800;9.216;2024-02-16T07:43:30;9.27;;;4.57;;
609;SDS011;292;48.800;9.216;2024-02-16T07:45:58;14.97;;;5.03;;
609;SDS011;292;48.800;9.216;2024-02-16T07:48:25;10.70;;;4.53;;
609;SDS011;292;48.800;9.216;2024-02-16T07:50:52;17.80;;;5.00;;
609;SDS011;292;48.800;9.216;2024-02-16T07:53:20;10.63;;;4.13;;
609;SDS011;292;48.800;9.216;2024-02-16T07:55:47;8.17;;;4.07;;
609;SDS011;292;48.800;9.216;2024-02-16T07:58:14;8.93;;;4.73;;
609;SDS011;292;48.800;9.216;2024-02-16T08:00:41;8.40;;;4.37;;
609;SDS011;292;48.800;9.216;2024-02-16T08:03:08;8.53;;;4.37;;
609;SDS011;292;48.800;9.216;2024-02-16T08:05:35;7.53;;;4.10;;
609;SDS011;292;48.800;9.216;2024-02-16T08:08:02;18.70;;;5.10;;
609;SDS011;292;48.800;9.216;2024-02-16T08:10:31;8.93;;;4.43;;
609;SDS011;292;48.800;9.216;2024-02-16T08:12:59;15.50;;;4.90;;
609;SDS011;292;48.800;9.216;2024-02-16T08:15:26;18.20;;;5.23;;
609;SDS011;292;48.800;9.216;2024-02-16T08:17:54;18.13;;;5.97;;
609;SDS011;292;48.800;9.216;2024-02-16T08:20:21;11.30;;;4.70;;
609;SDS011;292;48.800;9.216;2024-02-16T08:22:48;9.70;;;4.47;;
609;SDS011;292;48.800;9.216;2024-02-16T08:25:15;15.17;;;5.40;;
609;SDS011;292;48.800;9.216;2024-02-16T08:27:43;9.67;;;4.93;;
609;SDS011;292;48.800;9.216;2024-02-16T08:30:10;17.20;;;5.77;;
609;SDS011;292;48.800;9.216;2024-02-16T08:32:38;18.30;;;6.00;;
609;SDS011;292;48.800;9.216;2024-02-16T08:35:05;19.40;;;5.77;;
609;SDS011;292;48.800;9.216;2024-02-16T08:37:32;16.00;;;5.53;;
609;SDS011;292;48.800;9.216;2024-02-16T08:40:00;11.97;;;5.47;;
609;SDS011;292;48.800;9.216;2024-02-16T08:42:28;16.50;;;6.60;;
609;SDS011;292;48.800;9.216;2024-02-16T08:44:58;16.20;;;5.90;;
609;SDS011;292;48.800;9.216;2024-02-16T08:47:25;15.43;;;6.17;;
609;SDS011;292;48.800;9.216;2024-02-16T08:49:52;20.10;;;6.97;;
609;SDS011;292;48.800;9.216;2024-02-16T08:52:19;12.67;;;5.73;;
609;SDS011;292;48.800;9.216;2024-02-16T08:54:46;19.37;;;4.70;;
609;SDS011;292;48.800;9.216;2024-02-16T08:57:13;12.27;;;5.83;;
609;SDS011;292;48.800;9.216;2024-02-16T08:59:40;11.97;;;5.17;;
609;SDS011;292;48.800;9.216;2024-02-16T09:02:10;13.60;;;4.90;;
609;SDS011;292;48.800;9.216;2024-02-16T09:04:37;14.63;;;4.57;;
609;SDS011;292;48.800;9.216;2024-02-16T09:07:05;10.60;;;4.70;;
609;SDS011;292;48.800;9.216;2024-02-16T09:09:35;9.57;;;4.70;;
609;SDS011;292;48.800;9.216;2024-02-16T09:12:02;11.27;;;4.73;;
609;SDS011;292;48.800;9.216;2024-02-16T09:14:29;12.50;;;4.30;;
609;SDS011;292;48.800;9.216;2024-02-16T09:16:57;16.07;;;4.90;;
609;SDS011;292;48.800;9.216;2024-02-16T09:19:25;13.23;;;4.50;;
609;SDS011;292;48.800;9.216;2024-02-16T09:21:53;15.00;;;4.57;;
609;SDS011;292;48.800;9.216;2024-02-16T09:24:20;12.60;;;5.10;;
609;SDS011;292;48.800;9.216;2024-02-16T09:26:48;16.80;;;5.97;;
609;SDS011;292;48.800;9.216;2024-02-16T09:29:15;11.60;;;4.70;;
609;SDS011;292;48.800;9.216;2024-02-16T09:31:44;8.90;;;4.00;;
609;SDS011;292;48.800;9.216;2024-02-16T09:34:16;10.40;;;4.53;;
609;SDS011;292;48.800;9.216;2024-02-16T09:36:44;10.03;;;4.53;;
609;SDS011;292;48.800;9.216;2024-02-16T09:39:12;8.70;;;4.63;;
609;SDS011;292;48.800;9.216;2024-02-16T09:41:41;11.10;;;3.73;;
609;SDS011;292;48.800;9.216;2024-02-16T09:44:09;11.00;;;4.50;;
609;SDS011;292;48.800;9.216;2024-02-16T09:46:37;11.37;;;4.43;;
609;SDS011;292;48.800;9.216;2024-02-16T09:49:04;11.93;;;4.30;;
609;SDS011;292;48.800;9.216;2024-02-16T09:51:35;17.20;;;5.47;;
609;SDS011;292;48.800;9.216;2024-02-16T09:54:04;11.20;;;4.90;;
609;SDS011;292;48.800;9.216;2024-02-16T09:56:32;12.63;;;4.83;;
609;SDS011;292;48.800;9.216;2024-02-16T09:58:59;13.60;;;5.00;;
609;SDS011;292;48.800;9.216;2024-02-16T10:01:27;14.80;;;5.00;;
609;SDS011;292;48.800;9.216;2024-02-16T10:03:59;10.93;;;4.73;;
609;SDS011;292;48.800;9.216;2024-02-16T10:06:32;11.57;;;4.70;;
609;SDS011;292;48.800;9.216;2024-02-16T10:09:21;9.70;;;4.40;;
609;SDS011;292;48.800;9.216;2024-02-16T10:11:49;16.13;;;4.93;;
609;SDS011;292;48.800;9.216;2024-02-16T10:14:17;9.73;;;4.20;;
609;SDS011;292;48.800;9.216;2024-02-16T10:16:45;9.53;;;3.90;;
609;SDS011;292;48.800;9.216;2024-02-16T10:19:13;9.73;;;4.37;;
609;SDS011;292;48.800;9.216;2024-02-16T10:21:40;7.60;;;4.23;;
609;SDS011;292;48.800;9.216;2024-02-16T10:24:09;14.37;;;4.30;;
609;SDS011;292;48.800;9.216;2024-02-16T10:26:40;9.17;;;3.87;;
609;SDS011;292;48.800;9.216;2024-02-16T10:29:09;9.50;;;3.93;;
609;SDS011;292;48.800;9.216;2024-02-16T10:31:36;6.70;;;3.80;;
609;SDS011;292;48.800;9.216;2024-02-16T10:34:05;14.40;;;4.23;;
609;SDS011;292;48.800;9.216;2024-02-16T10:36:35;7.73;;;3.50;;
609;SDS011;292;48.800;9.216;2024-02-16T10:39:03;15.00;;;4.93;;
609;SDS011;292;48.800;9.216;2024-02-16T10:41:34;12.23;;;3.63;;
609;SDS011;292;48.800;9.216;2024-02-16T10:44:03;9.40;;;3.70;;
609;SDS011;292;48.800;9.216;2024-02-16T10:46:31;9.67;;;4.13;;
609;SDS011;292;48.800;9.216;2024-02-16T10:48:59;9.57;;;3.60;;
609;SDS011;292;48.800;9.216;2024-02-16T10:51:31;8.00;;;3.20;;
609;SDS011;292;48.800;9.216;2024-02-16T10:54:03;13.83;;;4.53;;
609;SDS011;292;48.800;9.216;2024-02-16T10:56:34;12.90;;;4.10;;
609;SDS011;292;48.800;9.216;2024-02-16T10:59:03;11.67;;;3.17;;
609;SDS011;292;48.800;9.216;2024-02-16T11:01:32;8.30;;;3.30;;
609;SDS011;292;48.800;9.216;2024-02-16T11:04:03;10.20;;;3.77;;
609;SDS011;292;48.800;9.216;2024-02-16T11:06:37;5.83;;;2.90;;
609;SDS011;292;48.800;9.216;2024-02-16T11:12:01;32.90;;;18.80;;
609;SDS011;292;48.800;9.216;2024-02-16T11:14:35;18.43;;;9.80;;
609;SDS011;292;48.800;9.216;2024-02-16T11:17:03;7.97;;;3.80;;
609;SDS011;292;48.800;9.216;2024-02-16T11:19:35;8.73;;;3.40;;
609;SDS011;292;48.800;9.216;2024-02-16T11:22:05;5.77;;;2.97;;
609;SDS011;292;48.800;9.216;2024-02-16T11:24:35;5.87;;;2.80;;
609;SDS011;292;48.800;9.216;2024-02-16T11:27:03;6.17;;;2.60;;
609;SDS011;292;48.800;9.216;2024-02-16T11:29:31;5.80;;;2.77;;
609;SDS011;292;48.800;9.216;2024-02-16T11:32:01;7.83;;;2.60;;
609;SDS011;292;48.800;9.216;2024-02-16T11:34:29;10.67;;;2.50;;
609;SDS011;292;48.800;9.216;2024-02-16T11:36:56;4.73;;;2.40;;
609;SDS011;292;48.800;9.216;2024-02-16T11:39:24;9.37;;;3.80;;
609;SDS011;292;48.800;9.216;2024-02-16T11:42:01;15.03;;;4.23;;
609;SDS011;292;48.800;9.216;2024-02-16T11:44:29;10.10;;;4.23;;
609;SDS011;292;48.800;9.216;2024-02-16T11:46:58;10.83;;;4.10;;
609;SDS011;292;48.800;9.216;2024-02-16T11:49:27;8.10;;;3.50;;
609;SDS011;292;48.800;9.216;2024-02-16T11:51:55;9.80;;;2.93;;
609;SDS011;292;48.800;9.216;2024-02-16T11:54:22;14.30;;;3.43;;
609;SDS011;292;48.800;9.216;2024-02-16T11:56:49;8.67;;;3.10;;
609;SDS011;292;48.800;9.216;2024-02-16T11:59:17;11.80;;;3.37;;
609;SDS011;292;48.800;9.216;2024-02-16T12:01:48;8.83;;;3.93;;
609;SDS011;292;48.800;9.216;2024-02-16T12:04:20;14.80;;;4.50;;
609;SDS011;292;48.800;9.216;2024-02-16T12:06:51;12.40;;;3.97;;
609;SDS011;292;48.800;9.216;2024-02-16T12:09:19;12.70;;;3.40;;
609;SDS011;292;48.800;9.216;2024-02-16T12:11:47;5.00;;;2.60;;
609;SDS011;292;48.800;9.216;2024-02-16T12:14:15;6.30;;;2.73;;
609;SDS011;292;48.800;9.216;2024-02-16T12:16:42;7.13;;;2.80;;
609;SDS011;292;48.800;9.216;2024-02-16T12:19:12;4.90;;;2.73;;
609;SDS011;292;48.800;9.216;2024-02-16T12:21:40;10.53;;;3.10;;
609;SDS011;292;48.800;9.216;2024-02-16T12:24:08;4.67;;;2.60;;
609;SDS011;292;48.800;9.216;2024-02-16T12:26:35;8.17;;;3.07;;
609;SDS011;292;48.800;9.216;2024-02-16T12:29:02;12.37;;;2.43;;
609;SDS011;292;48.800;9.216;2024-02-16T12:31:29;13.77;;;3.30;;
609;SDS011;292;48.800;9.216;2024-02-16T12:33:57;6.40;;;2.70;;
609;SDS011;292;48.800;9.216;2024-02-16T12:36:24;8.23;;;3.30;;
609;SDS011;292;48.800;9.216;2024-02-16T12:38:52;6.93;;;3.17;;
609;SDS011;292;48.800;9.216;2024-02-16T12:41:21;8.93;;;2.90;;
609;SDS011;292;48.800;9.216;2024-02-16T12:43:48;3.43;;;2.10;;
609;SDS011;292;48.800;9.216;2024-02-16T12:46:15;5.33;;;2.30;;
609;SDS011;292;48.800;9.216;2024-02-16T12:48:42;4.90;;;2.33;;
609;SDS011;292;48.800;9.216;2024-02-16T12:51:09;5.30;;;3.17;;
609;SDS011;292;48.800;9.216;2024-02-16T12:53:37;9.57;;;2.70;;
609;SDS011;292;48.800;9.216;2024-02-16T12:56:06;7.10;;;3.10;;
609;SDS011;292;48.800;9.216;2024-02-16T12:58:35;5.23;;;2.60;;
609;SDS011;292;48.800;9.216;2024-02-16T13:01:03;10.00;;;3.03;;
609;SDS011;292;48.800;9.216;2024-02-16T13:03:31;7.17;;;3.07;;
609;SDS011;292;48.800;9.216;2024-02-16T13:05:59;4.17;;;2.70;;
609;SDS011;292;48.800;9.216;2024-02-16T13:08:26;11.17;;;3.60;;
609;SDS011;292;48.800;9.216;2024-02-16T13:10:53;10.50;;;3.07;;
609;SDS011;292;48.800;9.216;2024-02-16T13:13:20;10.43;;;2.20;;
609;SDS011;292;48.800;9.216;2024-02-16T13:15:49;7.80;;;2.40;;
609;SDS011;292;48.800;9.216;2024-02-16T13:18:16;7.23;;;3.23;;
609;SDS011;292;48.800;9.216;2024-02-16T13:20:43;11.43;;;3.13;;
609;SDS011;292;48.800;9.216;2024-02-16T13:23:12;6.90;;;2.60;;
609;SDS011;292;48.800;9.216;2024-02-16T13:25:39;7.50;;;2.93;;
609;SDS011;292;48.800;9.216;2024-02-16T13:28:06;14.83;;;3.10;;
609;SDS011;292;48.800;9.216;2024-02-16T13:30:33;13.90;;;2.90;;
609;SDS011;292;48.800;9.216;2024-02-16T13:33:01;10.60;;;3.03;;
609;SDS011;292;48.800;9.216;2024-02-16T13:35:29;4.10;;;2.57;;
609;SDS011;292;48.800;9.216;2024-02-16T13:37:55;5.80;;;2.00;;
609;SDS011;292;48.800;9.216;2024-02-16T13:40:22;9.00;;;2.70;;
609;SDS011;292;48.800;9.216;2024-02-16T13:42:49;11.00;;;3.00;;
609;SDS011;292;48.800;9.216;2024-02-16T13:45:17;9.97;;;2.80;;
609;SDS011;292;48.800;9.216;2024-02-16T13:47:44;12.83;;;2.50;;
609;SDS011;292;48.800;9.216;2024-02-16T13:50:12;6.60;;;2.40;;
609;SDS011;292;48.800;9.216;2024-02-16T13:52:40;5.37;;;2.20;;
609;SDS011;292;48.800;9.216;2024-02-16T13:55:07;4.03;;;1.97;;
609;SDS011;292;48.800;9.216;2024-02-16T13:57:34;4.33;;;2.40;;
609;SDS011;292;48.800;9.216;2024-02-16T14:00:04;6.97;;;2.77;;
609;SDS011;292;48.800;9.216;2024-02-16T14:02:35;14.13;;;3.17;;
609;SDS011;292;48.800;9.216;2024-02-16T14:05:03;8.43;;;3.37;;
609;SDS011;292;48.800;9.216;2024-02-16T14:07:32;8.07;;;3.37;;
609;SDS011;292;48.800;9.216;2024-02-16T14:09:59;9.50;;;2.50;;
609;SDS011;292;48.800;9.216;2024-02-16T14:12:26;21.80;;;3.17;;
609;SDS011;292;48.800;9.216;2024-02-16T14:14:54;10.23;;;3.40;;
609;SDS011;292;48.800;9.216;2024-02-16T14:17:22;10.10;;;3.53;;
609;SDS011;292;48.800;9.216;2024-02-16T14:19:49;12.30;;;3.30;;
609;SDS011;292;48.800;9.216;2024-02-16T14:22:16;11.10;;;3.30;;
609;SDS011;292;48.800;9.216;2024-02-16T14:24:45;7.43;;;2.67;;
609;SDS011;292;48.800;9.216;2024-02-16T14:27:12;11.93;;;3.63;;
609;SDS011;292;48.800;9.216;2024-02-16T14:29:39;9.43;;;3.30;;
609;SDS011;292;48.800;9.216;2024-02-16T14:32:06;8.93;;;2.70;;
609;SDS011;292;48.800;9.216;2024-02-16T14:34:33;6.70;;;3.10;;
609;SDS011;292;48.800;9.216;2024-02-16T14:37:00;8.73;;;3.37;;
609;SDS011;292;48.800;9.216;2024-02-16T14:39:27;11.50;;;3.13;;
609;SDS011;292;48.800;9.216;2024-02-16T14:41:56;6.30;;;2.67;;
609;SDS011;292;48.800;9.216;2024-02-16T14:44:23;7.90;;;2.87;;
609;SDS011;292;48.800;9.216;2024-02-16T14:46:50;7.97;;;3.20;;
609;SDS011;292;48.800;9.216;2024-02-16T14:49:17;5.90;;;2.57;;
609;SDS011;292;48.800;9.216;2024-02-16T14:51:46;6.80;;;3.00;;
609;SDS011;292;48.800;9.216;2024-02-16T14:54:14;5.57;;;2.73;;
609;SDS011;292;48.800;9.216;2024-02-16T14:56:41;12.80;;;3.50;;
609;SDS011;292;48.800;9.216;2024-02-16T14:59:09;8.13;;;2.57;;
609;SDS011;292;48.800;9.216;2024-02-16T15:01:36;12.20;;;3.20;;
609;SDS011;292;48.800;9.216;2024-02-16T15:04:04;12.43;;;2.23;;
609;SDS011;292;48.800;9.216;2024-02-16T15:06:30;7.40;;;1.87;;
609;SDS011;292;48.800;9.216;2024-02-16T15:09:01;14.67;;;2.20;;
609;SDS011;292;48.800;9.216;2024-02-16T15:11:30;10.13;;;2.20;;
609;SDS011;292;48.800;9.216;2024-02-16T15:13:57;7.47;;;2.00;;
609;SDS011;292;48.800;9.216;2024-02-16T15:16:27;10.70;;;1.90;;
609;SDS011;292;48.800;9.216;2024-02-16T15:18:54;9.30;;;2.07;;
609;SDS011;292;48.800;9.216;2024-02-16T15:21:21;10.63;;;1.90;;
609;SDS011;292;48.800;9.216;2024-02-16T15:23:48;6.00;;;1.70;;
609;SDS011;292;48.800;9.216;2024-02-16T15:26:15;8.40;;;1.80;;
609;SDS011;292;48.800;9.216;2024-02-16T15:28:42;8.40;;;1.90;;
609;SDS011;292;48.800;9.216;2024-02-16T15:31:11;3.10;;;1.37;;
609;SDS011;292;48.800;9.216;2024-02-16T15:33:39;5.90;;;1.60;;
609;SDS011;292;48.800;9.216;2024-02-16T15:36:07;10.43;;;1.93;;
609;SDS011;292;48.800;9.216;2024-02-16T15:38:35;7.17;;;1.50;;
609;SDS011;292;48.800;9.216;2024-02-16T15:41:02;7.27;;;2.10;;
609;SDS011;292;48.800;9.216;2024-02-16T15:43:29;10.93;;;1.67;;
609;SDS011;292;48.800;9.216;2024-02-16T15:45:56;9.00;;;1.33;;
609;SDS011;292;48.800;9.216;2024-02-16T15:48:23;4.80;;;1.63;;
609;SDS011;292;48.800;9.216;2024-02-16T15:50:52;12.17;;;1.93;;
609;SDS011;292;48.800;9.216;2024-02-16T15:53:20;4.13;;;1.43;;
609;SDS011;292;48.800;9.216;2024-02-16T15:55:47;5.67;;;1.57;;
609;SDS011;292;48.800;9.216;2024-02-16T15:58:13;9.07;;;2.00;;
609;SDS011;292;48.800;9.216;2024-02-16T16:40:56;6.57;;;1.83;;
609;SDS011;292;48.800;9.216;2024-02-16T16:46:46;5.80;;;2.03;;
609;SDS011;292;48.800;9.216;2024-02-16T17:03:41;6.67;;;2.27;;
609;SDS011;292;48.800;9.216;2024-02-16T18:36:48;12.60;;;4.50;;
609;SDS011;292;48.800;9.216;2024-02-16T20:17:32;9.27;;;4.77;;
609;SDS011;292;48.800;9.216;2024-02-16T20:20:00;9.10;;;5.00;;
609;SDS011;292;48.800;9.216;2024-02-16T20:22:32;10.33;;;4.80;;
609;SDS011;292;48.800;9.216;2024-02-16T20:24:59;10.37;;;4.83;;
609;SDS011;292;48.800;9.216;2024-02-16T20:27:31;9.87;;;4.87;;
609;SDS011;292;48.800;9.216;2024-02-16T20:30:12;14.97;;;6.13;;
609;SDS011;292;48.800;9.216;2024-02-16T20:32:44;16.77;;;5.80;;
609;SDS011;292;48.800;9.216;2024-02-16T20:35:29;11.63;;;5.50;;
609;SDS011;292;48.800;9.216;2024-02-16T20:37:56;15.33;;;7.00;;
609;SDS011;292;48.800;9.216;2024-02-16T20:40:23;14.93;;;7.07;;
609;SDS011;292;48.800;9.216;2024-02-16T20:42:51;11.17;;;6.63;;
609;SDS011;292;48.800;9.216;2024-02-16T20:45:18;14.67;;;6.03;;
609;SDS011;292;48.800;9.216;2024-02-16T20:47:47;16.20;;;6.27;;
609;SDS011;292;48.800;9.216;2024-02-16T20:50:14;10.37;;;5.90;;
609;SDS011;292;48.800;9.216;2024-02-16T20:52:41;8.93;;;4.90;;
609;SDS011;292;48.800;9.216;2024-02-16T20:55:08;10.67;;;5.90;;
609;SDS011;292;48.800;9.216;2024-02-16T20:57:36;13.80;;;5.20;;
609;SDS011;292;48.800;9.216;2024-02-16T21:00:03;19.13;;;7.60;;
609;SDS011;292;48.800;9.216;2024-02-16T21:26:14;12.50;;;6.30;;
609;SDS011;292;48.800;9.216;2024-02-16T23:18:30;14.33;;;6.83;;
609;SDS011;292;48.800;9.216;2024-02-16T23:41:32;14.30;;;6.97;;
609;SDS011;292;48.800;9.216;2024-02-16T23:43:59;14.40;;;8.00;;
609;SDS011;292;48.800;9.216;2024-02-16T23:46:27;18.07;;;8.13;;
609;SDS011;292;48.800;9.216;2024-02-16T23:48:54;19.83;;;8.77;;
609;SDS011;292;48.800;9.216;2024-02-16T23:51:21;17.00;;;9.00;;
609;SDS011;292;48.800;9.216;2024-02-16T23:53:49;19.63;;;8.57;;
609;SDS011;292;48.800;9.216;2024-02-16T23:56:16;17.67;;;8.60;;
609;SDS011;292;48.800;9.216;2024-02-16T23:58:45;14.57;;;8.00;;
